sensor_id;sensor_type;location;lat;lon;timestamp;temperature;humidity
42877;DHT22;42341;40.498;72.818;2023-02-01T00:01:29;2.40;73.70
42877;DHT22;42341;40.498;72.818;2023-02-01T00:03:55;2.40;73.50
42877;DHT22;42341;40.498;72.818;2023-02-01T00:06:21;2.40;73.70
42877;DHT22;42341;40.498;72.818;2023-02-01T00:08:47;2.40;73.50
42877;DHT22;42341;40.498;72.818;2023-02-01T00:11:13;2.30;73.30
42877;DHT22;42341;40.498;72.818;2023-02-01T00:13:41;2.30;73.20
42877;DHT22;42341;40.498;72.818;2023-02-01T00:18:47;2.40;73.30
42877;DHT22;42341;40.498;72.818;2023-02-01T00:21:14;2.40;72.90
42877;DHT22;42341;40.498;72.818;2023-02-01T00:23:41;2.50;73.40
42877;DHT22;42341;40.498;72.818;2023-02-01T00:26:10;2.40;73.30
42877;DHT22;42341;40.498;72.818;2023-02-01T00:28:38;2.30;73.30
42877;DHT22;42341;40.498;72.818;2023-02-01T00:31:05;2.30;73.40
42877;DHT22;42341;40.498;72.818;2023-02-01T00:33:32;2.30;73.80
42877;DHT22;42341;40.498;72.818;2023-02-01T00:36:03;2.50;73.20
42877;DHT22;42341;40.498;72.818;2023-02-01T00:38:29;2.50;72.90
42877;DHT22;42341;40.498;72.818;2023-02-01T00:41:05;2.40;73.30
42877;DHT22;42341;40.498;72.818;2023-02-01T00:43:32;2.40;73.30
42877;DHT22;42341;40.498;72.818;2023-02-01T00:45:58;2.40;73.20
42877;DHT22;42341;40.498;72.818;2023-02-01T00:48:25;2.40;72.90
42877;DHT22;42341;40.498;72.818;2023-02-01T00:50:51;2.40;72.70
42877;DHT22;42341;40.498;72.818;2023-02-01T00:53:17;2.40;72.80
42877;DHT22;42341;40.498;72.818;2023-02-01T00:55:47;2.50;73.30
42877;DHT22;42341;40.498;72.818;2023-02-01T00:58:14;2.50;72.70
42877;DHT22;42341;40.498;72.818;2023-02-01T01:00:40;2.40;72.50
42877;DHT22;42341;40.498;72.818;2023-02-01T01:03:06;2.50;72.80
42877;DHT22;42341;40.498;72.818;2023-02-01T01:05:49;2.50;72.90
42877;DHT22;42341;40.498;72.818;2023-02-01T01:08:16;2.50;72.70
42877;DHT22;42341;40.498;72.818;2023-02-01T01:10:43;2.50;72.70
42877;DHT22;42341;40.498;72.818;2023-02-01T01:13:10;2.50;72.90
42877;DHT22;42341;40.498;72.818;2023-02-01T01:15:39;2.60;72.50
42877;DHT22;42341;40.498;72.818;2023-02-01T01:18:06;2.70;72.60
42877;DHT22;42341;40.498;72.818;2023-02-01T01:20:38;2.70;72.70
42877;DHT22;42341;40.498;72.818;2023-02-01T01:23:04;2.70;72.40
42877;DHT22;42341;40.498;72.818;2023-02-01T01:25:31;2.70;72.30
42877;DHT22;42341;40.498;72.818;2023-02-01T01:27:57;2.70;72.40
42877;DHT22;42341;40.498;72.818;2023-02-01T01:30:23;2.80;72.40
42877;DHT22;42341;40.498;72.818;2023-02-01T01:32:50;2.90;72.40
42877;DHT22;42341;40.498;72.818;2023-02-01T01:35:17;2.90;72.00
42877;DHT22;42341;40.498;72.818;2023-02-01T01:37:43;2.80;72.10
42877;DHT22;42341;40.498;72.818;2023-02-01T01:40:11;2.90;72.00
42877;DHT22;42341;40.498;72.818;2023-02-01T01:42:41;2.90;72.00
42877;DHT22;42341;40.498;72.818;2023-02-01T01:47:39;3.00;71.80
42877;DHT22;42341;40.498;72.818;2023-02-01T01:50:09;3.00;71.70
42877;DHT22;42341;40.498;72.818;2023-02-01T01:52:37;3.10;71.90
42877;DHT22;42341;40.498;72.818;2023-02-01T01:55:04;3.20;71.60
42877;DHT22;42341;40.498;72.818;2023-02-01T01:57:34;3.20;71.60
42877;DHT22;42341;40.498;72.818;2023-02-01T02:02:46;3.10;71.20
42877;DHT22;42341;40.498;72.818;2023-02-01T02:05:13;3.10;71.30
42877;DHT22;42341;40.498;72.818;2023-02-01T02:07:43;3.20;71.50
42877;DHT22;42341;40.498;72.818;2023-02-01T02:10:12;3.20;71.20
42877;DHT22;42341;40.498;72.818;2023-02-01T02:12:40;3.20;71.10
42877;DHT22;42341;40.498;72.818;2023-02-01T02:15:08;3.20;71.40
42877;DHT22;42341;40.498;72.818;2023-02-01T02:18:01;3.20;71.70
42877;DHT22;42341;40.498;72.818;2023-02-01T02:26:51;3.20;71.20
42877;DHT22;42341;40.498;72.818;2023-02-01T02:38:08;3.30;70.90
42877;DHT22;42341;40.498;72.818;2023-02-01T02:40:45;3.30;70.70
42877;DHT22;42341;40.498;72.818;2023-02-01T02:43:21;3.10;71.00
42877;DHT22;42341;40.498;72.818;2023-02-01T02:46:46;3.10;71.30
42877;DHT22;42341;40.498;72.818;2023-02-01T02:49:59;3.30;71.40
42877;DHT22;42341;40.498;72.818;2023-02-01T02:52:54;3.40;71.50
42877;DHT22;42341;40.498;72.818;2023-02-01T02:55:41;3.40;71.40
42877;DHT22;42341;40.498;72.818;2023-02-01T02:58:08;3.50;71.30
42877;DHT22;42341;40.498;72.818;2023-02-01T03:00:55;3.50;71.20
42877;DHT22;42341;40.498;72.818;2023-02-01T03:03:40;3.50;71.30
42877;DHT22;42341;40.498;72.818;2023-02-01T03:06:25;3.60;71.00
42877;DHT22;42341;40.498;72.818;2023-02-01T03:08:51;3.60;70.80
42877;DHT22;42341;40.498;72.818;2023-02-01T03:11:20;3.60;71.30
42877;DHT22;42341;40.498;72.818;2023-02-01T03:13:56;3.70;70.60
42877;DHT22;42341;40.498;72.818;2023-02-01T03:16:40;3.80;70.70
42877;DHT22;42341;40.498;72.818;2023-02-01T03:19:35;3.80;70.60
42877;DHT22;42341;40.498;72.818;2023-02-01T03:22:06;4.00;70.60
42877;DHT22;42341;40.498;72.818;2023-02-01T03:24:39;3.90;70.00
42877;DHT22;42341;40.498;72.818;2023-02-01T03:32:37;4.10;69.30
42877;DHT22;42341;40.498;72.818;2023-02-01T03:47:12;4.50;68.10
42877;DHT22;42341;40.498;72.818;2023-02-01T03:49:51;4.60;67.90
42877;DHT22;42341;40.498;72.818;2023-02-01T03:52:29;4.60;67.60
42877;DHT22;42341;40.498;72.818;2023-02-01T03:54:57;4.80;67.70
42877;DHT22;42341;40.498;72.818;2023-02-01T03:57:27;4.80;67.70
42877;DHT22;42341;40.498;72.818;2023-02-01T04:00:06;4.90;67.70
42877;DHT22;42341;40.498;72.818;2023-02-01T04:02:34;5.00;67.70
42877;DHT22;42341;40.498;72.818;2023-02-01T04:05:00;5.10;67.40
42877;DHT22;42341;40.498;72.818;2023-02-01T04:07:26;5.30;67.50
42877;DHT22;42341;40.498;72.818;2023-02-01T04:09:52;5.60;68.00
42877;DHT22;42341;40.498;72.818;2023-02-01T04:12:17;5.80;66.10
42877;DHT22;42341;40.498;72.818;2023-02-01T04:14:44;6.10;67.10
42877;DHT22;42341;40.498;72.818;2023-02-01T04:17:10;6.40;67.40
42877;DHT22;42341;40.498;72.818;2023-02-01T04:19:35;6.70;65.80
42877;DHT22;42341;40.498;72.818;2023-02-01T04:22:01;6.80;64.40
42877;DHT22;42341;40.498;72.818;2023-02-01T04:24:27;6.90;63.20
42877;DHT22;42341;40.498;72.818;2023-02-01T04:26:53;6.90;62.20
42877;DHT22;42341;40.498;72.818;2023-02-01T04:29:19;6.70;62.60
42877;DHT22;42341;40.498;72.818;2023-02-01T04:31:45;6.90;63.20
42877;DHT22;42341;40.498;72.818;2023-02-01T04:34:12;7.00;62.60
42877;DHT22;42341;40.498;72.818;2023-02-01T04:36:37;7.10;62.70
42877;DHT22;42341;40.498;72.818;2023-02-01T04:39:03;7.10;62.60
42877;DHT22;42341;40.498;72.818;2023-02-01T04:41:29;7.20;62.40
42877;DHT22;42341;40.498;72.818;2023-02-01T04:43:55;7.40;61.80
42877;DHT22;42341;40.498;72.818;2023-02-01T04:46:21;7.50;61.30
42877;DHT22;42341;40.498;72.818;2023-02-01T04:48:47;7.60;60.90
42877;DHT22;42341;40.498;72.818;2023-02-01T04:51:13;7.60;60.60
42877;DHT22;42341;40.498;72.818;2023-02-01T04:53:41;7.90;60.60
42877;DHT22;42341;40.498;72.818;2023-02-01T04:56:07;8.40;60.20
42877;DHT22;42341;40.498;72.818;2023-02-01T04:58:33;8.80;59.90
42877;DHT22;42341;40.498;72.818;2023-02-01T05:01:02;9.20;59.00
42877;DHT22;42341;40.498;72.818;2023-02-01T05:03:31;9.60;57.90
42877;DHT22;42341;40.498;72.818;2023-02-01T05:05:57;9.90;57.30
42877;DHT22;42341;40.498;72.818;2023-02-01T05:08:23;10.20;56.70
42877;DHT22;42341;40.498;72.818;2023-02-01T05:10:50;10.20;55.80
42877;DHT22;42341;40.498;72.818;2023-02-01T05:13:16;10.10;55.80
42877;DHT22;42341;40.498;72.818;2023-02-01T05:16:00;9.80;56.70
42877;DHT22;42341;40.498;72.818;2023-02-01T05:18:26;9.70;55.80
42877;DHT22;42341;40.498;72.818;2023-02-01T05:20:52;9.50;57.00
42877;DHT22;42341;40.498;72.818;2023-02-01T05:23:18;9.20;56.60
42877;DHT22;42341;40.498;72.818;2023-02-01T05:25:44;9.20;57.20
42877;DHT22;42341;40.498;72.818;2023-02-01T05:28:10;9.20;58.00
42877;DHT22;42341;40.498;72.818;2023-02-01T05:30:36;9.10;57.00
42877;DHT22;42341;40.498;72.818;2023-02-01T05:33:03;9.10;57.00
42877;DHT22;42341;40.498;72.818;2023-02-01T05:35:29;9.10;57.00
42877;DHT22;42341;40.498;72.818;2023-02-01T05:37:55;9.10;56.80
42877;DHT22;42341;40.498;72.818;2023-02-01T05:40:22;9.00;59.50
42877;DHT22;42341;40.498;72.818;2023-02-01T05:42:48;9.10;61.10
42877;DHT22;42341;40.498;72.818;2023-02-01T05:45:14;9.20;62.00
42877;DHT22;42341;40.498;72.818;2023-02-01T05:47:40;9.20;61.40
42877;DHT22;42341;40.498;72.818;2023-02-01T05:50:06;9.30;61.60
42877;DHT22;42341;40.498;72.818;2023-02-01T05:52:33;9.30;61.60
42877;DHT22;42341;40.498;72.818;2023-02-01T05:54:59;9.30;62.00
42877;DHT22;42341;40.498;72.818;2023-02-01T05:57:24;9.40;62.00
42877;DHT22;42341;40.498;72.818;2023-02-01T05:59:50;9.50;61.00
42877;DHT22;42341;40.498;72.818;2023-02-01T06:02:16;9.60;60.20
42877;DHT22;42341;40.498;72.818;2023-02-01T06:04:42;9.70;59.80
42877;DHT22;42341;40.498;72.818;2023-02-01T06:07:09;9.90;59.20
42877;DHT22;42341;40.498;72.818;2023-02-01T06:09:36;9.90;58.80
42877;DHT22;42341;40.498;72.818;2023-02-01T06:12:03;9.90;59.20
42877;DHT22;42341;40.498;72.818;2023-02-01T06:14:29;9.80;59.40
42877;DHT22;42341;40.498;72.818;2023-02-01T06:16:56;9.70;59.40
42877;DHT22;42341;40.498;72.818;2023-02-01T06:19:23;9.70;58.80
42877;DHT22;42341;40.498;72.818;2023-02-01T06:21:49;9.80;59.60
42877;DHT22;42341;40.498;72.818;2023-02-01T06:24:16;9.70;59.00
42877;DHT22;42341;40.498;72.818;2023-02-01T06:26:44;9.80;59.00
42877;DHT22;42341;40.498;72.818;2023-02-01T06:29:10;9.90;60.00
42877;DHT22;42341;40.498;72.818;2023-02-01T06:31:36;9.90;60.20
42877;DHT22;42341;40.498;72.818;2023-02-01T06:34:02;10.00;59.20
42877;DHT22;42341;40.498;72.818;2023-02-01T06:36:29;10.00;59.00
42877;DHT22;42341;40.498;72.818;2023-02-01T06:38:55;10.00;58.30
42877;DHT22;42341;40.498;72.818;2023-02-01T06:41:22;10.00;58.90
42877;DHT22;42341;40.498;72.818;2023-02-01T06:43:48;10.00;58.70
42877;DHT22;42341;40.498;72.818;2023-02-01T06:46:15;9.90;58.20
42877;DHT22;42341;40.498;72.818;2023-02-01T06:48:41;10.00;58.30
42877;DHT22;42341;40.498;72.818;2023-02-01T06:51:24;9.90;57.90
42877;DHT22;42341;40.498;72.818;2023-02-01T06:53:50;9.70;56.70
42877;DHT22;42341;40.498;72.818;2023-02-01T06:56:17;9.60;56.50
42877;DHT22;42341;40.498;72.818;2023-02-01T06:58:44;9.50;56.90
42877;DHT22;42341;40.498;72.818;2023-02-01T07:01:11;9.60;56.90
42877;DHT22;42341;40.498;72.818;2023-02-01T07:03:37;9.50;56.90
42877;DHT22;42341;40.498;72.818;2023-02-01T07:06:04;9.40;56.20
42877;DHT22;42341;40.498;72.818;2023-02-01T07:08:31;9.40;57.00
42877;DHT22;42341;40.498;72.818;2023-02-01T07:11:06;9.40;57.50
42877;DHT22;42341;40.498;72.818;2023-02-01T07:13:33;9.50;57.70
42877;DHT22;42341;40.498;72.818;2023-02-01T07:16:03;9.40;57.00
42877;DHT22;42341;40.498;72.818;2023-02-01T07:18:30;9.40;57.70
42877;DHT22;42341;40.498;72.818;2023-02-01T07:20:56;9.40;57.80
42877;DHT22;42341;40.498;72.818;2023-02-01T07:23:22;9.30;59.30
42877;DHT22;42341;40.498;72.818;2023-02-01T07:25:52;9.30;60.90
42877;DHT22;42341;40.498;72.818;2023-02-01T07:28:18;9.30;61.30
42877;DHT22;42341;40.498;72.818;2023-02-01T07:30:45;9.40;61.20
42877;DHT22;42341;40.498;72.818;2023-02-01T07:33:20;9.30;61.70
42877;DHT22;42341;40.498;72.818;2023-02-01T07:35:47;9.20;62.00
42877;DHT22;42341;40.498;72.818;2023-02-01T07:38:14;9.00;60.70
42877;DHT22;42341;40.498;72.818;2023-02-01T07:40:40;9.00;61.40
42877;DHT22;42341;40.498;72.818;2023-02-01T07:43:06;9.00;61.20
42877;DHT22;42341;40.498;72.818;2023-02-01T07:45:34;9.30;61.50
42877;DHT22;42341;40.498;72.818;2023-02-01T07:48:00;9.40;61.50
42877;DHT22;42341;40.498;72.818;2023-02-01T07:50:27;9.40;60.60
42877;DHT22;42341;40.498;72.818;2023-02-01T07:52:53;9.40;60.40
42877;DHT22;42341;40.498;72.818;2023-02-01T07:55:19;9.50;60.50
42877;DHT22;42341;40.498;72.818;2023-02-01T07:57:46;9.60;61.00
42877;DHT22;42341;40.498;72.818;2023-02-01T08:00:13;9.50;61.00
42877;DHT22;42341;40.498;72.818;2023-02-01T08:03:00;9.50;60.60
42877;DHT22;42341;40.498;72.818;2023-02-01T08:05:27;9.30;59.40
42877;DHT22;42341;40.498;72.818;2023-02-01T08:07:53;9.40;60.30
42877;DHT22;42341;40.498;72.818;2023-02-01T08:10:19;9.40;60.80
42877;DHT22;42341;40.498;72.818;2023-02-01T08:12:46;9.60;61.00
42877;DHT22;42341;40.498;72.818;2023-02-01T08:15:17;9.60;60.00
42877;DHT22;42341;40.498;72.818;2023-02-01T08:17:47;9.80;60.20
42877;DHT22;42341;40.498;72.818;2023-02-01T08:20:14;9.70;59.70
42877;DHT22;42341;40.498;72.818;2023-02-01T08:22:40;9.70;59.20
42877;DHT22;42341;40.498;72.818;2023-02-01T08:25:06;9.70;59.50
42877;DHT22;42341;40.498;72.818;2023-02-01T08:27:36;9.80;60.60
42877;DHT22;42341;40.498;72.818;2023-02-01T08:30:02;9.80;60.00
42877;DHT22;42341;40.498;72.818;2023-02-01T08:32:29;9.80;59.10
42877;DHT22;42341;40.498;72.818;2023-02-01T08:34:54;9.90;59.10
42877;DHT22;42341;40.498;72.818;2023-02-01T08:37:20;10.00;59.20
42877;DHT22;42341;40.498;72.818;2023-02-01T08:39:46;10.00;59.10
42877;DHT22;42341;40.498;72.818;2023-02-01T08:42:15;10.10;58.30
42877;DHT22;42341;40.498;72.818;2023-02-01T08:45:00;10.10;58.20
42877;DHT22;42341;40.498;72.818;2023-02-01T08:47:26;10.00;57.70
42877;DHT22;42341;40.498;72.818;2023-02-01T08:49:52;9.90;56.10
42877;DHT22;42341;40.498;72.818;2023-02-01T08:52:19;9.90;56.80
42877;DHT22;42341;40.498;72.818;2023-02-01T08:54:45;9.90;57.10
42877;DHT22;42341;40.498;72.818;2023-02-01T08:57:10;9.80;57.30
42877;DHT22;42341;40.498;72.818;2023-02-01T08:59:36;9.90;57.50
42877;DHT22;42341;40.498;72.818;2023-02-01T09:02:02;9.80;56.90
42877;DHT22;42341;40.498;72.818;2023-02-01T09:04:28;9.80;56.10
42877;DHT22;42341;40.498;72.818;2023-02-01T09:06:54;9.70;55.90
42877;DHT22;42341;40.498;72.818;2023-02-01T09:09:22;9.60;57.00
42877;DHT22;42341;40.498;72.818;2023-02-01T09:11:48;9.60;55.50
42877;DHT22;42341;40.498;72.818;2023-02-01T09:14:16;9.60;56.60
42877;DHT22;42341;40.498;72.818;2023-02-01T09:16:42;9.60;56.10
42877;DHT22;42341;40.498;72.818;2023-02-01T09:19:08;9.50;57.00
42877;DHT22;42341;40.498;72.818;2023-02-01T09:21:34;9.40;57.20
42877;DHT22;42341;40.498;72.818;2023-02-01T09:24:00;9.30;57.40
42877;DHT22;42341;40.498;72.818;2023-02-01T09:26:27;9.20;58.80
42877;DHT22;42341;40.498;72.818;2023-02-01T09:28:53;9.10;59.40
42877;DHT22;42341;40.498;72.818;2023-02-01T09:31:19;9.10;59.80
42877;DHT22;42341;40.498;72.818;2023-02-01T09:33:45;9.20;60.10
42877;DHT22;42341;40.498;72.818;2023-02-01T09:36:11;9.20;59.70
42877;DHT22;42341;40.498;72.818;2023-02-01T09:38:37;9.10;59.40
42877;DHT22;42341;40.498;72.818;2023-02-01T09:46:28;9.00;59.80
42877;DHT22;42341;40.498;72.818;2023-02-01T09:48:57;9.10;60.40
42877;DHT22;42341;40.498;72.818;2023-02-01T09:51:35;9.10;60.20
42877;DHT22;42341;40.498;72.818;2023-02-01T09:54:21;9.30;58.90
42877;DHT22;42341;40.498;72.818;2023-02-01T09:56:48;9.00;58.40
42877;DHT22;42341;40.498;72.818;2023-02-01T10:01:51;9.10;58.70
42877;DHT22;42341;40.498;72.818;2023-02-01T10:04:17;9.00;59.00
42877;DHT22;42341;40.498;72.818;2023-02-01T10:12:28;9.10;57.70
42877;DHT22;42341;40.498;72.818;2023-02-01T10:17:45;9.20;60.00
42877;DHT22;42341;40.498;72.818;2023-02-01T10:23:30;9.00;58.90
42877;DHT22;42341;40.498;72.818;2023-02-01T10:26:15;8.80;59.20
42877;DHT22;42341;40.498;72.818;2023-02-01T10:28:46;8.80;59.00
42877;DHT22;42341;40.498;72.818;2023-02-01T10:31:14;8.80;60.50
42877;DHT22;42341;40.498;72.818;2023-02-01T10:33:47;8.70;59.80
42877;DHT22;42341;40.498;72.818;2023-02-01T10:36:29;8.60;58.70
42877;DHT22;42341;40.498;72.818;2023-02-01T10:38:57;8.60;58.30
42877;DHT22;42341;40.498;72.818;2023-02-01T10:41:28;8.60;58.90
42877;DHT22;42341;40.498;72.818;2023-02-01T10:43:57;8.70;59.50
42877;DHT22;42341;40.498;72.818;2023-02-01T10:46:24;8.60;59.60
42877;DHT22;42341;40.498;72.818;2023-02-01T10:48:53;8.70;60.20
42877;DHT22;42341;40.498;72.818;2023-02-01T10:51:24;8.60;60.30
42877;DHT22;42341;40.498;72.818;2023-02-01T10:54:03;8.50;60.00
42877;DHT22;42341;40.498;72.818;2023-02-01T10:56:38;8.50;59.30
42877;DHT22;42341;40.498;72.818;2023-02-01T10:59:06;8.40;60.80
42877;DHT22;42341;40.498;72.818;2023-02-01T11:01:39;8.30;61.90
42877;DHT22;42341;40.498;72.818;2023-02-01T11:04:09;8.20;62.30
42877;DHT22;42341;40.498;72.818;2023-02-01T11:06:37;8.10;62.60
42877;DHT22;42341;40.498;72.818;2023-02-01T11:09:11;8.00;63.00
42877;DHT22;42341;40.498;72.818;2023-02-01T11:16:53;7.80;63.50
42877;DHT22;42341;40.498;72.818;2023-02-01T11:19:19;7.90;64.70
42877;DHT22;42341;40.498;72.818;2023-02-01T11:21:53;7.80;64.30
42877;DHT22;42341;40.498;72.818;2023-02-01T11:24:39;7.70;63.90
42877;DHT22;42341;40.498;72.818;2023-02-01T11:27:14;7.60;64.70
42877;DHT22;42341;40.498;72.818;2023-02-01T11:29:43;7.50;64.10
42877;DHT22;42341;40.498;72.818;2023-02-01T11:32:13;7.50;63.70
42877;DHT22;42341;40.498;72.818;2023-02-01T11:34:51;7.50;63.20
42877;DHT22;42341;40.498;72.818;2023-02-01T11:37:34;7.40;63.60
42877;DHT22;42341;40.498;72.818;2023-02-01T11:40:22;7.50;63.80
42877;DHT22;42341;40.498;72.818;2023-02-01T11:43:00;7.40;64.80
42877;DHT22;42341;40.498;72.818;2023-02-01T11:45:29;7.40;65.10
42877;DHT22;42341;40.498;72.818;2023-02-01T11:47:57;7.30;65.40
42877;DHT22;42341;40.498;72.818;2023-02-01T11:56:17;7.20;65.70
42877;DHT22;42341;40.498;72.818;2023-02-01T12:07:42;7.40;64.40
42877;DHT22;42341;40.498;72.818;2023-02-01T12:18:32;7.10;67.00
42877;DHT22;42341;40.498;72.818;2023-02-01T12:32:46;6.90;68.10
42877;DHT22;42341;40.498;72.818;2023-02-01T12:46:54;6.90;68.00
42877;DHT22;42341;40.498;72.818;2023-02-01T12:55:42;6.80;67.90
42877;DHT22;42341;40.498;72.818;2023-02-01T12:58:48;6.80;69.00
42877;DHT22;42341;40.498;72.818;2023-02-01T13:01:26;6.70;70.30
42877;DHT22;42341;40.498;72.818;2023-02-01T13:06:47;6.60;70.80
42877;DHT22;42341;40.498;72.818;2023-02-01T13:09:51;6.50;70.80
42877;DHT22;42341;40.498;72.818;2023-02-01T13:14:57;6.50;71.90
42877;DHT22;42341;40.498;72.818;2023-02-01T13:17:28;6.50;71.80
42877;DHT22;42341;40.498;72.818;2023-02-01T13:20:02;6.40;72.40
42877;DHT22;42341;40.498;72.818;2023-02-01T13:22:39;6.40;72.60
42877;DHT22;42341;40.498;72.818;2023-02-01T13:28:12;6.30;73.20
42877;DHT22;42341;40.498;72.818;2023-02-01T13:33:41;6.30;72.20
42877;DHT22;42341;40.498;72.818;2023-02-01T13:45:19;6.00;73.90
42877;DHT22;42341;40.498;72.818;2023-02-01T13:47:42;5.90;73.90
42877;DHT22;42341;40.498;72.818;2023-02-01T13:52:45;5.80;75.30
42877;DHT22;42341;40.498;72.818;2023-02-01T13:57:45;5.70;74.60
42877;DHT22;42341;40.498;72.818;2023-02-01T14:00:28;5.60;75.00
42877;DHT22;42341;40.498;72.818;2023-02-01T14:21:29;5.10;78.10
42877;DHT22;42341;40.498;72.818;2023-02-01T14:24:13;5.00;79.50
42877;DHT22;42341;40.498;72.818;2023-02-01T14:26:49;5.00;80.00
42877;DHT22;42341;40.498;72.818;2023-02-01T14:47:52;5.00;80.40
42877;DHT22;42341;40.498;72.818;2023-02-01T15:00:52;4.90;80.00
42877;DHT22;42341;40.498;72.818;2023-02-01T15:05:57;4.90;80.10
42877;DHT22;42341;40.498;72.818;2023-02-01T15:08:30;4.80;80.20
42877;DHT22;42341;40.498;72.818;2023-02-01T15:10:56;4.80;80.80
42877;DHT22;42341;40.498;72.818;2023-02-01T15:13:28;4.90;80.70
42877;DHT22;42341;40.498;72.818;2023-02-01T15:16:02;4.90;80.80
42877;DHT22;42341;40.498;72.818;2023-02-01T15:18:28;5.00;80.20
42877;DHT22;42341;40.498;72.818;2023-02-01T15:21:02;5.00;80.60
42877;DHT22;42341;40.498;72.818;2023-02-01T15:23:28;5.00;80.10
42877;DHT22;42341;40.498;72.818;2023-02-01T15:25:55;5.00;80.00
42877;DHT22;42341;40.498;72.818;2023-02-01T15:28:21;5.00;79.80
42877;DHT22;42341;40.498;72.818;2023-02-01T15:31:04;5.00;80.50
42877;DHT22;42341;40.498;72.818;2023-02-01T15:33:31;5.10;80.40
42877;DHT22;42341;40.498;72.818;2023-02-01T15:38:43;4.90;81.30
42877;DHT22;42341;40.498;72.818;2023-02-01T15:41:15;4.90;81.70
42877;DHT22;42341;40.498;72.818;2023-02-01T15:46:30;4.90;81.60
42877;DHT22;42341;40.498;72.818;2023-02-01T15:48:56;5.00;81.60
42877;DHT22;42341;40.498;72.818;2023-02-01T15:51:25;5.00;81.40
42877;DHT22;42341;40.498;72.818;2023-02-01T15:53:57;5.00;81.90
42877;DHT22;42341;40.498;72.818;2023-02-01T15:56:43;5.00;81.30
42877;DHT22;42341;40.498;72.818;2023-02-01T15:59:19;4.90;81.70
42877;DHT22;42341;40.498;72.818;2023-02-01T16:01:46;4.90;81.80
42877;DHT22;42341;40.498;72.818;2023-02-01T16:04:19;4.90;82.00
42877;DHT22;42341;40.498;72.818;2023-02-01T16:06:55;4.90;82.30
42877;DHT22;42341;40.498;72.818;2023-02-01T16:09:35;5.00;81.90
42877;DHT22;42341;40.498;72.818;2023-02-01T16:12:02;4.90;81.30
42877;DHT22;42341;40.498;72.818;2023-02-01T16:14:29;4.90;81.30
42877;DHT22;42341;40.498;72.818;2023-02-01T16:16:57;4.90;81.70
42877;DHT22;42341;40.498;72.818;2023-02-01T16:19:23;5.00;81.30
42877;DHT22;42341;40.498;72.818;2023-02-01T16:21:54;5.00;80.60
42877;DHT22;42341;40.498;72.818;2023-02-01T16:24:20;5.00;81.10
42877;DHT22;42341;40.498;72.818;2023-02-01T16:26:53;4.90;81.20
42877;DHT22;42341;40.498;72.818;2023-02-01T16:29:19;4.80;82.20
42877;DHT22;42341;40.498;72.818;2023-02-01T16:31:48;4.90;81.40
42877;DHT22;42341;40.498;72.818;2023-02-01T16:34:16;4.90;81.00
42877;DHT22;42341;40.498;72.818;2023-02-01T16:36:43;4.80;80.80
42877;DHT22;42341;40.498;72.818;2023-02-01T16:39:13;4.70;82.70
42877;DHT22;42341;40.498;72.818;2023-02-01T16:41:39;4.60;82.50
42877;DHT22;42341;40.498;72.818;2023-02-01T16:44:06;4.60;83.00
42877;DHT22;42341;40.498;72.818;2023-02-01T16:46:35;4.50;83.70
42877;DHT22;42341;40.498;72.818;2023-02-01T16:49:02;4.40;84.90
42877;DHT22;42341;40.498;72.818;2023-02-01T16:51:32;4.30;84.20
42877;DHT22;42341;40.498;72.818;2023-02-01T16:53:59;4.40;83.50
42877;DHT22;42341;40.498;72.818;2023-02-01T16:56:31;4.50;82.90
42877;DHT22;42341;40.498;72.818;2023-02-01T16:58:58;4.40;83.20
42877;DHT22;42341;40.498;72.818;2023-02-01T17:01:25;4.30;83.90
42877;DHT22;42341;40.498;72.818;2023-02-01T17:03:51;4.20;84.20
42877;DHT22;42341;40.498;72.818;2023-02-01T17:06:19;4.20;84.50
42877;DHT22;42341;40.498;72.818;2023-02-01T17:08:57;4.30;83.60
42877;DHT22;42341;40.498;72.818;2023-02-01T17:11:27;4.20;84.50
42877;DHT22;42341;40.498;72.818;2023-02-01T17:13:57;4.10;85.40
42877;DHT22;42341;40.498;72.818;2023-02-01T17:16:30;4.20;84.80
42877;DHT22;42341;40.498;72.818;2023-02-01T17:19:03;4.10;84.90
42877;DHT22;42341;40.498;72.818;2023-02-01T17:21:41;4.10;84.60
42877;DHT22;42341;40.498;72.818;2023-02-01T17:24:12;4.00;84.80
42877;DHT22;42341;40.498;72.818;2023-02-01T17:26:40;4.00;83.90
42877;DHT22;42341;40.498;72.818;2023-02-01T17:29:05;4.10;82.70
42877;DHT22;42341;40.498;72.818;2023-02-01T17:31:35;4.10;81.50
42877;DHT22;42341;40.498;72.818;2023-02-01T17:34:02;4.20;81.00
42877;DHT22;42341;40.498;72.818;2023-02-01T17:36:28;4.20;80.80
42877;DHT22;42341;40.498;72.818;2023-02-01T17:38:53;4.20;81.00
42877;DHT22;42341;40.498;72.818;2023-02-01T17:41:19;4.20;80.60
42877;DHT22;42341;40.498;72.818;2023-02-01T17:43:45;4.20;81.40
42877;DHT22;42341;40.498;72.818;2023-02-01T17:46:16;4.20;80.60
42877;DHT22;42341;40.498;72.818;2023-02-01T17:48:43;4.10;80.50
42877;DHT22;42341;40.498;72.818;2023-02-01T17:51:28;4.20;80.60
42877;DHT22;42341;40.498;72.818;2023-02-01T17:53:55;4.10;80.50
42877;DHT22;42341;40.498;72.818;2023-02-01T17:56:24;4.10;80.30
42877;DHT22;42341;40.498;72.818;2023-02-01T17:58:50;4.20;80.40
42877;DHT22;42341;40.498;72.818;2023-02-01T18:01:22;4.20;81.00
42877;DHT22;42341;40.498;72.818;2023-02-01T18:03:48;4.20;80.70
42877;DHT22;42341;40.498;72.818;2023-02-01T18:06:20;4.00;80.60
42877;DHT22;42341;40.498;72.818;2023-02-01T18:08:46;4.00;81.10
42877;DHT22;42341;40.498;72.818;2023-02-01T18:11:14;4.00;81.60
42877;DHT22;42341;40.498;72.818;2023-02-01T18:13:41;4.00;82.40
42877;DHT22;42341;40.498;72.818;2023-02-01T18:18:44;3.90;82.70
42877;DHT22;42341;40.498;72.818;2023-02-01T18:21:10;3.90;82.70
42877;DHT22;42341;40.498;72.818;2023-02-01T18:23:36;3.80;82.50
42877;DHT22;42341;40.498;72.818;2023-02-01T18:26:02;3.90;83.10
42877;DHT22;42341;40.498;72.818;2023-02-01T18:28:29;3.90;82.50
42877;DHT22;42341;40.498;72.818;2023-02-01T18:30:55;4.00;82.40
42877;DHT22;42341;40.498;72.818;2023-02-01T18:33:21;4.00;82.00
42877;DHT22;42341;40.498;72.818;2023-02-01T18:35:48;4.00;81.80
42877;DHT22;42341;40.498;72.818;2023-02-01T18:38:14;4.10;81.40
42877;DHT22;42341;40.498;72.818;2023-02-01T18:40:51;4.00;81.00
42877;DHT22;42341;40.498;72.818;2023-02-01T18:43:19;4.00;81.20
42877;DHT22;42341;40.498;72.818;2023-02-01T18:45:46;4.00;81.30
42877;DHT22;42341;40.498;72.818;2023-02-01T18:48:14;4.10;81.10
42877;DHT22;42341;40.498;72.818;2023-02-01T18:50:42;4.20;81.20
42877;DHT22;42341;40.498;72.818;2023-02-01T18:53:18;4.20;81.00
42877;DHT22;42341;40.498;72.818;2023-02-01T18:55:54;4.40;80.90
42877;DHT22;42341;40.498;72.818;2023-02-01T18:58:21;4.40;80.20
42877;DHT22;42341;40.498;72.818;2023-02-01T19:00:52;4.40;80.60
42877;DHT22;42341;40.498;72.818;2023-02-01T19:03:18;4.30;80.40
42877;DHT22;42341;40.498;72.818;2023-02-01T19:05:45;4.10;81.20
42877;DHT22;42341;40.498;72.818;2023-02-01T19:08:12;4.20;80.90